createdAt,value
2018-06-01T00:02:15.142Z,12.23
2018-06-01T00:04:43.309Z,13.63
2018-06-01T00:07:11.416Z,13.90
2018-06-01T00:09:39.558Z,13.23
2018-06-01T00:12:07.706Z,12.50
2018-06-01T00:14:35.852Z,14.03
2018-06-01T00:17:04.009Z,13.67
2018-06-01T00:19:32.206Z,14.90
2018-06-01T00:22:00.352Z,13.73
2018-06-01T00:24:28.489Z,13.77
2018-06-01T00:26:56.623Z,14.30
2018-06-01T00:29:24.815Z,14.20
2018-06-01T00:31:52.941Z,16.17
2018-06-01T00:34:21.064Z,17.27
2018-06-01T00:36:49.196Z,17.53
2018-06-01T00:39:17.353Z,18.17
2018-06-01T00:41:45.786Z,16.23
2018-06-01T00:44:13.948Z,16.70
2018-06-01T00:46:42.070Z,17.00
2018-06-01T00:49:10.210Z,15.97
2018-06-01T00:51:38.341Z,17.93
2018-06-01T00:54:06.509Z,18.00
2018-06-01T00:56:34.624Z,18.83
2018-06-01T00:59:02.755Z,17.83
2018-06-01T01:01:30.921Z,17.20
2018-06-01T01:03:59.061Z,19.30
2018-06-01T01:06:27.233Z,17.43
2018-06-01T01:08:55.857Z,17.83
2018-06-01T01:11:23.987Z,17.20
2018-06-01T01:13:52.137Z,16.73
2018-06-01T01:16:20.256Z,17.13
2018-06-01T01:18:48.416Z,16.83
2018-06-01T01:21:16.577Z,17.60
2018-06-01T01:23:44.722Z,18.53
2018-06-01T01:26:12.845Z,18.73
2018-06-01T01:28:40.973Z,18.73
2018-06-01T01:31:09.112Z,17.93
2018-06-01T01:33:37.260Z,18.33
2018-06-01T01:36:05.377Z,19.23
2018-06-01T01:38:33.512Z,18.50
2018-06-01T01:41:01.665Z,17.70
2018-06-01T01:43:29.788Z,18.10
2018-06-01T01:45:57.936Z,20.23
2018-06-01T01:48:26.056Z,18.83
2018-06-01T01:50:54.198Z,20.93
2018-06-01T01:53:22.334Z,21.57
2018-06-01T01:55:50.509Z,20.57
2018-06-01T01:58:18.664Z,20.30
2018-06-01T02:00:46.782Z,21.73
2018-06-01T02:03:14.904Z,22.33
2018-06-01T02:05:43.042Z,23.67
2018-06-01T02:08:11.179Z,22.57
2018-06-01T02:10:39.310Z,22.53
2018-06-01T02:13:12.313Z,24.53
2018-06-01T02:15:40.452Z,25.90
2018-06-01T02:18:08.568Z,27.07
2018-06-01T02:20:37.356Z,24.97
2018-06-01T02:23:05.487Z,24.60
2018-06-01T02:25:33.614Z,25.97
2018-06-01T02:28:01.762Z,26.50
2018-06-01T02:30:29.898Z,25.47
2018-06-01T02:32:58.032Z,25.83
2018-06-01T02:35:26.171Z,25.17
2018-06-01T02:37:54.306Z,24.93
2018-06-01T02:40:22.420Z,26.27
2018-06-01T02:42:50.594Z,27.13
2018-06-01T02:45:18.717Z,26.37
2018-06-01T02:47:46.854Z,27.17
2018-06-01T02:50:14.971Z,27.77
2018-06-01T02:52:43.125Z,28.77
2018-06-01T02:55:11.260Z,31.60
2018-06-01T02:57:39.421Z,32.13
2018-06-01T03:00:07.558Z,29.93
2018-06-01T03:02:35.705Z,29.33
2018-06-01T03:05:03.843Z,29.13
2018-06-01T03:07:32.013Z,26.63
2018-06-01T03:10:00.151Z,30.80
2018-06-01T03:12:28.280Z,28.77
2018-06-01T03:14:56.445Z,29.70
2018-06-01T03:17:24.574Z,28.43
2018-06-01T03:19:52.723Z,31.57
2018-06-01T03:22:20.876Z,29.17
2018-06-01T03:24:49.027Z,33.83
2018-06-01T03:27:17.369Z,34.63
2018-06-01T03:29:45.521Z,36.03
2018-06-01T03:32:13.652Z,30.50
2018-06-01T03:34:41.791Z,32.40
2018-06-01T03:37:09.930Z,32.53
2018-06-01T03:39:38.080Z,34.00
2018-06-01T03:42:06.238Z,33.30
2018-06-01T03:44:34.407Z,35.07
2018-06-01T03:47:02.539Z,34.23
2018-06-01T03:49:30.686Z,36.20
2018-06-01T03:52:01.734Z,36.77
2018-06-01T03:54:29.877Z,35.60
2018-06-01T03:56:58.050Z,33.67
2018-06-01T03:59:26.165Z,38.47
2018-06-01T04:01:54.313Z,38.70
2018-06-01T04:04:23.442Z,39.03
2018-06-01T04:06:51.555Z,42.30
2018-06-01T04:09:20.283Z,41.27
2018-06-01T04:11:48.419Z,36.80
2018-06-01T04:14:16.555Z,38.77
2018-06-01T04:16:44.717Z,40.40
2018-06-01T04:19:12.855Z,42.03
2018-06-01T04:21:40.985Z,46.17
2018-06-01T04:24:09.128Z,43.40
2018-06-01T04:26:37.270Z,43.73
2018-06-01T04:29:05.411Z,44.30
2018-06-01T04:31:33.556Z,43.97
2018-06-01T04:34:01.692Z,43.60
2018-06-01T04:36:29.830Z,42.53
2018-06-01T04:38:57.967Z,43.03
2018-06-01T04:41:26.109Z,43.03
2018-06-01T04:43:54.247Z,42.90
2018-06-01T04:46:22.421Z,43.40
2018-06-01T04:48:50.550Z,45.00
2018-06-01T04:51:18.682Z,41.67
2018-06-01T04:53:46.830Z,41.87
2018-06-01T04:56:14.993Z,43.60
2018-06-01T04:58:46.692Z,41.43
2018-06-01T05:01:14.871Z,42.83
2018-06-01T05:03:42.992Z,42.17
2018-06-01T05:06:11.139Z,43.40
2018-06-01T05:08:39.283Z,44.23
2018-06-01T05:11:07.444Z,43.17
2018-06-01T05:13:35.593Z,43.83
2018-06-01T05:16:03.722Z,40.43
2018-06-01T05:18:31.875Z,40.20
2018-06-01T05:21:00.006Z,39.23
2018-06-01T05:23:28.150Z,39.43
2018-06-01T05:25:56.268Z,41.10
2018-06-01T05:28:24.395Z,42.13
2018-06-01T05:30:52.544Z,41.47
2018-06-01T05:33:20.708Z,42.10
2018-06-01T05:35:49.429Z,41.93
2018-06-01T05:38:17.561Z,43.10
2018-06-01T05:40:45.703Z,43.20
2018-06-01T05:43:13.841Z,44.13
2018-06-01T05:45:42.173Z,43.63
2018-06-01T05:48:10.288Z,45.87
2018-06-01T05:50:38.452Z,45.57
2018-06-01T05:53:06.595Z,45.63
2018-06-01T05:55:34.741Z,47.03
2018-06-01T05:58:02.901Z,47.73
2018-06-01T06:00:31.034Z,47.00
2018-06-01T06:02:59.184Z,45.17
2018-06-01T06:05:27.327Z,47.57
2018-06-01T06:07:55.474Z,46.50
2018-06-01T06:10:23.599Z,48.77
2018-06-01T06:12:51.748Z,48.43
2018-06-01T06:15:19.893Z,47.80
2018-06-01T06:17:48.045Z,50.00
2018-06-01T06:20:16.167Z,50.90
2018-06-01T06:22:44.319Z,54.20
2018-06-01T06:25:12.456Z,52.33
2018-06-01T06:27:40.576Z,55.63
2018-06-01T06:30:08.741Z,55.37
2018-06-01T06:32:36.860Z,54.50
2018-06-01T06:35:05.012Z,54.20
2018-06-01T06:37:33.158Z,57.40
2018-06-01T06:40:01.312Z,54.87
2018-06-01T06:42:29.439Z,54.73
2018-06-01T06:44:58.575Z,56.80
2018-06-01T06:47:26.726Z,55.57
2018-06-01T06:49:54.858Z,55.60
2018-06-01T06:52:23.008Z,59.30
2018-06-01T06:54:51.123Z,58.33
2018-06-01T06:57:19.271Z,57.40
2018-06-01T06:59:47.418Z,55.63
2018-06-01T07:02:15.555Z,56.33
2018-06-01T07:04:43.699Z,54.93
2018-06-01T07:07:11.820Z,58.50
2018-06-01T07:09:39.962Z,53.27
2018-06-01T07:12:08.110Z,56.10
2018-06-01T07:14:36.318Z,57.97
2018-06-01T07:17:07.454Z,57.73
2018-06-01T07:19:39.147Z,58.03
2018-06-01T07:22:07.305Z,56.00
2018-06-01T07:24:35.550Z,54.50
2018-06-01T07:27:03.676Z,53.93
2018-06-01T07:29:31.820Z,52.07
2018-06-01T07:31:59.960Z,54.17
2018-06-01T07:34:28.114Z,55.27
2018-06-01T07:36:56.258Z,63.60
2018-06-01T07:39:24.384Z,60.23
2018-06-01T07:41:52.549Z,58.43
2018-06-01T07:44:20.686Z,54.50
2018-06-01T07:46:48.826Z,56.23
2018-06-01T07:49:16.986Z,55.80
2018-06-01T07:51:45.138Z,56.80
2018-06-01T07:54:13.282Z,60.07
2018-06-01T07:56:41.453Z,55.97
2018-06-01T07:59:09.583Z,52.43
2018-06-01T08:01:37.759Z,53.43
2018-06-01T08:04:05.864Z,53.80
2018-06-01T08:06:34.002Z,55.83
2018-06-01T08:09:02.129Z,56.90
2018-06-01T08:11:30.301Z,53.97
2018-06-01T08:13:58.442Z,56.80
2018-06-01T08:16:26.558Z,55.87
2018-06-01T08:18:54.704Z,53.50
2018-06-01T08:21:22.833Z,52.73
2018-06-01T08:23:51.248Z,50.13
2018-06-01T08:26:19.378Z,53.30
2018-06-01T08:28:47.503Z,49.63
2018-06-01T08:31:15.646Z,48.80
2018-06-01T08:33:43.908Z,47.93
2018-06-01T08:36:12.083Z,47.40
2018-06-01T08:38:40.208Z,49.77
2018-06-01T08:41:08.358Z,49.03
2018-06-01T08:43:36.479Z,52.83
2018-06-01T08:46:04.641Z,52.23
2018-06-01T08:48:33.108Z,52.40
2018-06-01T08:51:01.212Z,52.13
2018-06-01T08:53:29.348Z,49.33
2018-06-01T08:55:57.498Z,48.83
2018-06-01T08:58:25.638Z,52.20
2018-06-01T09:00:53.778Z,47.53
2018-06-01T09:03:21.925Z,45.53
2018-06-01T09:05:50.074Z,45.77
2018-06-01T09:08:18.215Z,46.90
2018-06-01T09:10:46.342Z,45.57
2018-06-01T09:13:14.476Z,44.60
2018-06-01T09:15:42.615Z,41.20
2018-06-01T09:18:10.738Z,34.77
2018-06-01T09:20:38.901Z,30.90
2018-06-01T09:23:07.044Z,30.47
2018-06-01T09:25:35.397Z,27.83
2018-06-01T09:28:03.526Z,28.77
2018-06-01T09:30:31.671Z,27.33
2018-06-01T09:32:59.797Z,28.60
2018-06-01T09:35:27.942Z,29.03
2018-06-01T09:37:56.113Z,29.70
2018-06-01T09:40:24.242Z,31.43
2018-06-01T09:42:52.387Z,29.87
2018-06-01T09:45:20.541Z,32.13
2018-06-01T09:47:48.700Z,34.53
2018-06-01T09:50:16.861Z,34.67
2018-06-01T09:52:44.986Z,34.90
2018-06-01T09:55:13.123Z,35.90
2018-06-01T09:57:41.266Z,32.47
2018-06-01T10:00:09.388Z,30.50
2018-06-01T10:02:37.600Z,29.17
2018-06-01T10:05:05.709Z,30.07
2018-06-01T10:07:33.842Z,29.43
2018-06-01T10:10:07.502Z,32.13
2018-06-01T10:12:35.638Z,31.90
2018-06-01T10:15:03.828Z,32.87
2018-06-01T10:17:31.900Z,32.53
2018-06-01T10:20:00.037Z,33.57
2018-06-01T10:22:28.187Z,33.97
2018-06-01T10:24:56.313Z,31.87
2018-06-01T10:27:24.452Z,32.37
2018-06-01T10:29:52.586Z,23.67
2018-06-01T10:32:20.725Z,21.87
2018-06-01T10:34:48.862Z,20.63
2018-06-01T10:37:17.003Z,17.10
2018-06-01T10:39:45.165Z,15.40
2018-06-01T10:42:13.279Z,15.23
2018-06-01T10:44:41.423Z,17.20
2018-06-01T10:47:09.569Z,16.53
2018-06-01T10:49:37.715Z,19.03
2018-06-01T10:52:05.854Z,20.47
2018-06-01T10:54:34.000Z,19.53
2018-06-01T10:57:02.135Z,21.50
2018-06-01T10:59:30.277Z,18.47
2018-06-01T11:01:58.421Z,16.83
2018-06-01T11:04:26.555Z,16.93
2018-06-01T11:06:54.713Z,16.37
2018-06-01T11:09:22.855Z,18.23
2018-06-01T11:11:50.998Z,17.23
2018-06-01T11:14:19.134Z,16.13
2018-06-01T11:16:47.339Z,18.10
2018-06-01T11:19:15.759Z,16.77
2018-06-01T11:21:43.879Z,14.77
2018-06-01T11:24:12.037Z,13.67
2018-06-01T11:26:40.164Z,12.93
2018-06-01T11:29:08.322Z,13.03
2018-06-01T11:31:36.432Z,12.83
2018-06-01T11:34:04.597Z,14.00
2018-06-01T11:36:32.737Z,14.03
2018-06-01T11:39:00.897Z,15.40
2018-06-01T11:41:29.057Z,13.30
2018-06-01T11:43:57.196Z,14.63
2018-06-01T11:46:25.349Z,13.97
2018-06-01T11:48:53.497Z,13.90
2018-06-01T11:51:21.776Z,14.23
2018-06-01T11:53:49.931Z,14.33
2018-06-01T11:56:18.062Z,14.67
2018-06-01T11:58:46.249Z,21.87
2018-06-01T12:01:14.360Z,24.43
2018-06-01T12:03:42.496Z,22.50
2018-06-01T12:06:10.739Z,23.07
2018-06-01T12:08:38.841Z,25.47
2018-06-01T12:11:07.009Z,25.33
2018-06-01T12:13:35.122Z,24.93
2018-06-01T12:16:03.253Z,25.80
2018-06-01T12:18:31.391Z,24.17
2018-06-01T12:20:59.560Z,24.50
2018-06-01T12:23:27.714Z,26.90
2018-06-01T12:25:55.849Z,24.07
2018-06-01T12:28:24.002Z,24.83
2018-06-01T12:30:52.167Z,27.17
2018-06-01T12:33:20.318Z,24.60
2018-06-01T12:35:48.446Z,26.30
2018-06-01T12:38:16.587Z,25.17
2018-06-01T12:40:44.737Z,28.23
2018-06-01T12:43:12.898Z,30.63
2018-06-01T12:45:41.022Z,30.00
2018-06-01T12:48:09.186Z,31.07
2018-06-01T12:50:37.347Z,31.10
2018-06-01T12:53:05.457Z,30.63
2018-06-01T12:55:33.613Z,33.97
2018-06-01T12:58:01.728Z,38.67
2018-06-01T13:00:29.935Z,42.70
2018-06-01T13:02:58.047Z,43.10
2018-06-01T13:05:26.204Z,45.37
2018-06-01T13:07:54.320Z,49.67
2018-06-01T13:10:22.459Z,50.40
2018-06-01T13:12:50.602Z,51.07
2018-06-01T13:15:18.768Z,49.97
2018-06-01T13:17:46.912Z,47.50
2018-06-01T13:20:15.055Z,47.93
2018-06-01T13:22:43.205Z,46.03
2018-06-01T13:25:11.347Z,44.47
2018-06-01T13:27:39.464Z,45.10
2018-06-01T13:30:07.608Z,44.43
2018-06-01T13:32:35.749Z,46.47
2018-06-01T13:35:03.984Z,48.73
2018-06-01T13:37:32.115Z,49.03
2018-06-01T13:40:00.252Z,45.33
2018-06-01T13:42:28.376Z,45.77
2018-06-01T13:44:56.519Z,49.40
2018-06-01T13:47:24.663Z,46.53
2018-06-01T13:49:52.817Z,50.30
2018-06-01T13:52:20.942Z,50.40
2018-06-01T13:54:52.229Z,51.70
2018-06-01T13:57:20.375Z,54.40
2018-06-01T13:59:48.526Z,51.47
2018-06-01T14:02:16.671Z,52.33
2018-06-01T14:04:44.825Z,55.77
2018-06-01T14:07:12.963Z,50.50
2018-06-01T14:09:41.099Z,53.20
2018-06-01T14:12:09.243Z,48.60
2018-06-01T14:14:37.414Z,50.30
2018-06-01T14:17:05.518Z,50.80
2018-06-01T14:19:33.647Z,43.83
2018-06-01T14:22:01.784Z,43.33
2018-06-01T14:24:29.919Z,41.47
2018-06-01T14:26:58.094Z,50.17
2018-06-01T14:29:26.215Z,47.13
2018-06-01T14:31:54.355Z,56.00
2018-06-01T14:34:22.528Z,49.57
2018-06-01T14:36:50.634Z,53.83
2018-06-01T14:39:18.813Z,56.33
2018-06-01T14:41:50.429Z,56.50
2018-06-01T14:44:18.566Z,53.27
2018-06-01T14:46:46.700Z,62.40
2018-06-01T14:49:14.851Z,60.40
2018-06-01T14:51:43.019Z,54.50
2018-06-01T14:54:11.132Z,51.23
2018-06-01T14:56:39.276Z,49.73
2018-06-01T14:59:07.400Z,52.73
2018-06-01T15:01:35.521Z,54.17
2018-06-01T15:04:03.678Z,53.17
2018-06-01T15:06:31.814Z,51.43
2018-06-01T15:08:59.954Z,52.53
2018-06-01T15:11:28.195Z,54.07
2018-06-01T15:13:56.383Z,52.47
2018-06-01T15:16:24.520Z,52.67
2018-06-01T15:18:52.633Z,51.30
2018-06-01T15:21:20.753Z,50.53
2018-06-01T15:23:49.120Z,50.83
2018-06-01T15:26:17.372Z,48.87
2018-06-01T15:28:45.512Z,48.67
2018-06-01T15:31:13.647Z,54.13
2018-06-01T15:33:41.800Z,51.00
2018-06-01T15:36:09.953Z,56.60
2018-06-01T15:38:38.983Z,57.07
2018-06-01T15:41:07.209Z,52.50
2018-06-01T15:43:35.290Z,54.30
2018-06-01T15:46:04.177Z,53.70
2018-06-01T15:48:32.329Z,52.63
2018-06-01T15:51:00.462Z,52.53
2018-06-01T15:53:32.340Z,53.17
2018-06-01T15:56:00.488Z,52.33
2018-06-01T15:58:28.632Z,54.90
2018-06-01T16:00:56.778Z,53.83
2018-06-01T16:03:24.933Z,56.37
2018-06-01T16:05:53.093Z,54.73
2018-06-01T16:08:21.272Z,55.57
2018-06-01T16:10:49.377Z,56.33
2018-06-01T16:13:17.487Z,56.43
2018-06-01T16:15:45.610Z,56.63
2018-06-01T16:18:13.805Z,56.20
2018-06-01T16:20:43.122Z,58.90
2018-06-01T16:23:11.274Z,57.73
2018-06-01T16:25:39.449Z,59.80
2018-06-01T16:28:07.577Z,57.97
2018-06-01T16:30:35.727Z,59.17
2018-06-01T16:33:03.881Z,58.23
2018-06-01T16:35:32.005Z,57.43
2018-06-01T16:38:00.164Z,59.73
2018-06-01T16:40:28.369Z,59.00
2018-06-01T16:42:56.537Z,55.80
2018-06-01T16:45:24.696Z,55.87
2018-06-01T16:47:52.912Z,57.53
2018-06-01T16:50:20.998Z,59.03
2018-06-01T16:52:49.147Z,60.33
2018-06-01T16:55:17.293Z,63.10
2018-06-01T16:57:45.426Z,58.70
2018-06-01T17:00:13.558Z,59.10
2018-06-01T17:02:41.735Z,58.03
2018-06-01T17:05:09.883Z,57.40
2018-06-01T17:07:38.015Z,54.40
2018-06-01T17:10:06.174Z,52.03
2018-06-01T17:12:34.319Z,48.57
2018-06-01T17:15:02.522Z,49.27
2018-06-01T17:17:30.651Z,48.97
2018-06-01T17:19:58.808Z,50.37
2018-06-01T17:22:26.942Z,49.17
2018-06-01T17:24:55.090Z,47.40
2018-06-01T17:27:23.249Z,45.90
2018-06-01T17:29:55.079Z,47.07
2018-06-01T17:32:23.217Z,45.63
2018-06-01T17:34:51.362Z,43.67
2018-06-01T17:37:19.517Z,43.47
2018-06-01T17:39:47.638Z,42.07
2018-06-01T17:42:15.766Z,39.40
2018-06-01T17:44:43.903Z,42.37
2018-06-01T17:47:12.031Z,42.50
2018-06-01T17:49:40.188Z,42.13
2018-06-01T17:52:08.342Z,38.13
2018-06-01T17:54:36.477Z,40.43
2018-06-01T17:57:04.614Z,38.17
2018-06-01T17:59:32.807Z,37.70
2018-06-01T18:02:00.954Z,38.80
2018-06-01T18:04:29.079Z,41.67
2018-06-01T18:06:57.248Z,37.73
2018-06-01T18:09:25.374Z,37.17
2018-06-01T18:11:53.504Z,35.67
2018-06-01T18:14:21.660Z,35.50
2018-06-01T18:16:49.806Z,33.90
2018-06-01T18:19:18.023Z,36.60
2018-06-01T18:21:46.172Z,34.73
2018-06-01T18:24:14.321Z,32.43
2018-06-01T18:26:42.455Z,35.03
2018-06-01T18:29:10.590Z,33.27
2018-06-01T18:31:38.750Z,32.83
2018-06-01T18:34:07.157Z,31.27
2018-06-01T18:36:35.298Z,32.03
2018-06-01T18:39:03.453Z,30.10
2018-06-01T18:41:31.598Z,29.53
2018-06-01T18:43:59.814Z,30.53
2018-06-01T18:46:27.894Z,28.07
2018-06-01T18:48:56.051Z,27.50
2018-06-01T18:51:24.190Z,28.40
2018-06-01T18:53:52.319Z,28.53
2018-06-01T18:56:20.467Z,27.30
2018-06-01T18:58:48.610Z,26.70
2018-06-01T19:01:16.782Z,26.77
2018-06-01T19:03:44.942Z,26.93
2018-06-01T19:06:13.074Z,26.57
2018-06-01T19:08:41.222Z,26.37
2018-06-01T19:11:09.352Z,25.97
2018-06-01T19:13:37.501Z,25.53
2018-06-01T19:16:05.631Z,24.83
2018-06-01T19:18:33.766Z,25.33
2018-06-01T19:21:02.998Z,22.77
2018-06-01T19:23:31.116Z,22.77
2018-06-01T19:25:59.267Z,21.63
2018-06-01T19:28:27.384Z,23.33
2018-06-01T19:30:55.525Z,22.43
2018-06-01T19:33:23.894Z,22.80
2018-06-01T19:35:52.026Z,22.37
2018-06-01T19:38:20.171Z,23.50
2018-06-01T19:40:48.291Z,23.23
2018-06-01T19:43:16.416Z,23.67
2018-06-01T19:45:44.549Z,24.53
2018-06-01T19:48:12.701Z,24.50
2018-06-01T19:50:40.838Z,24.97
2018-06-01T19:53:08.953Z,26.27
2018-06-01T19:55:37.106Z,25.77
2018-06-01T19:58:05.251Z,27.17
2018-06-01T20:00:33.398Z,27.93
2018-06-01T20:03:01.543Z,27.83
2018-06-01T20:05:29.678Z,30.07
2018-06-01T20:07:57.823Z,30.47
2018-06-01T20:10:25.951Z,31.37
2018-06-01T20:12:54.100Z,31.67
2018-06-01T20:15:22.266Z,32.93
2018-06-01T20:17:50.402Z,31.73
2018-06-01T20:20:18.520Z,32.60
2018-06-01T20:22:46.688Z,32.37
2018-06-01T20:25:14.818Z,32.07
2018-06-01T20:27:42.989Z,31.47
2018-06-01T20:30:11.118Z,31.90
2018-06-01T20:32:39.272Z,32.87
2018-06-01T20:35:07.540Z,34.00
2018-06-01T20:37:35.669Z,33.17
2018-06-01T20:40:03.827Z,32.30
2018-06-01T20:42:31.940Z,32.23
2018-06-01T20:45:00.064Z,33.67
2018-06-01T20:47:28.233Z,32.80
2018-06-01T20:49:56.521Z,32.47
2018-06-01T20:52:24.689Z,32.43
2018-06-01T20:54:52.828Z,31.67
2018-06-01T20:57:20.981Z,32.37
2018-06-01T20:59:49.141Z,32.13
2018-06-01T21:02:17.273Z,32.73
2018-06-01T21:04:45.403Z,31.43
2018-06-01T21:07:13.533Z,31.67
2018-06-01T21:09:41.670Z,32.77
2018-06-01T21:12:09.843Z,31.90
2018-06-01T21:14:41.471Z,31.93
2018-06-01T21:17:09.607Z,30.73
2018-06-01T21:19:37.771Z,31.87
2018-06-01T21:22:05.903Z,31.37
2018-06-01T21:24:34.031Z,31.80
2018-06-01T21:27:02.171Z,31.60
2018-06-01T21:29:30.345Z,31.87
2018-06-01T21:31:58.499Z,31.13
2018-06-01T21:34:26.630Z,32.47
2018-06-01T21:36:54.927Z,31.83
2018-06-01T21:39:23.087Z,31.60
2018-06-01T21:41:51.228Z,31.77
2018-06-01T21:44:19.367Z,32.07
2018-06-01T21:46:47.488Z,31.33
2018-06-01T21:49:15.678Z,33.00
2018-06-01T21:51:43.815Z,34.13
2018-06-01T21:54:11.966Z,32.90
2018-06-01T21:56:40.098Z,31.17
2018-06-01T21:59:08.249Z,33.10
2018-06-01T22:01:36.381Z,33.50
2018-06-01T22:04:04.506Z,32.37
2018-06-01T22:06:32.651Z,34.17
2018-06-01T22:09:00.832Z,33.40
2018-06-01T22:11:29.082Z,32.13
2018-06-01T22:13:57.243Z,31.83
2018-06-01T22:16:25.378Z,33.83
2018-06-01T22:18:53.523Z,33.90
2018-06-01T22:21:21.694Z,33.60
2018-06-01T22:23:49.840Z,34.77
2018-06-01T22:26:17.978Z,35.17
2018-06-01T22:28:46.472Z,34.20
2018-06-01T22:31:14.683Z,33.70
2018-06-01T22:33:42.929Z,34.17
2018-06-01T22:36:11.074Z,33.27
2018-06-01T22:38:39.247Z,34.37
2018-06-01T22:41:07.397Z,33.67
2018-06-01T22:43:35.532Z,35.83
2018-06-01T22:46:03.782Z,31.27
2018-06-01T22:48:31.924Z,31.80
2018-06-01T22:51:00.058Z,34.17
2018-06-01T22:53:28.201Z,33.87
2018-06-01T22:55:56.534Z,32.13
2018-06-01T22:58:24.667Z,32.00
2018-06-01T23:00:52.821Z,30.90
2018-06-01T23:03:20.962Z,31.53
2018-06-01T23:05:49.186Z,30.97
2018-06-01T23:08:17.304Z,32.37
2018-06-01T23:10:45.427Z,32.23
2018-06-01T23:13:13.571Z,30.53
2018-06-01T23:15:41.696Z,33.57
2018-06-01T23:18:09.838Z,32.03
2018-06-01T23:20:38.001Z,32.90
2018-06-01T23:23:06.126Z,31.33
2018-06-01T23:25:34.357Z,33.13
2018-06-01T23:28:02.483Z,30.47
2018-06-01T23:30:30.619Z,30.70
2018-06-01T23:32:58.865Z,31.93
2018-06-01T23:35:26.978Z,31.77
2018-06-01T23:37:55.128Z,31.60
2018-06-01T23:40:23.282Z,32.37
2018-06-01T23:42:51.413Z,29.73
2018-06-01T23:45:19.570Z,29.67
2018-06-01T23:47:47.689Z,29.70
2018-06-01T23:50:15.807Z,29.90
2018-06-01T23:52:43.981Z,31.00
2018-06-01T23:55:12.131Z,29.70
2018-06-01T23:57:40.290Z,29.97
